createdAt,value
2018-09-01T00:07:27.937Z,97406.06
2018-09-01T00:09:56.948Z,97402.60
2018-09-01T00:12:26.065Z,97400.11
2018-09-01T00:14:55.331Z,97405.73
2018-09-01T00:17:31.276Z,97399.05
2018-09-01T00:20:02.984Z,97404.20
2018-09-01T00:22:36.061Z,97403.11
2018-09-01T00:25:06.071Z,97398.19
2018-09-01T00:27:35.139Z,97395.22
2018-09-01T00:30:05.299Z,97392.29
2018-09-01T00:32:59.591Z,97394.35
2018-09-01T00:35:29.047Z,97390.62
2018-09-01T00:38:03.139Z,97387.77
2018-09-01T00:40:32.364Z,97386.20
2018-09-01T00:43:02.212Z,97390.85
2018-09-01T00:45:31.165Z,97387.98
2018-09-01T00:48:00.278Z,97391.23
2018-09-01T00:50:29.422Z,97390.65
2018-09-01T00:52:58.495Z,97392.52
2018-09-01T00:55:31.794Z,97384.88
2018-09-01T00:58:01.880Z,97387.33
2018-09-01T01:00:30.860Z,97386.33
2018-09-01T01:03:00.105Z,97390.50
2018-09-01T01:05:29.142Z,97382.54
2018-09-01T01:07:58.199Z,97384.22
2018-09-01T01:10:27.224Z,97387.37
2018-09-01T01:12:56.363Z,97377.34
2018-09-01T01:15:25.720Z,97386.09
2018-09-01T01:17:54.799Z,97364.69
2018-09-01T01:20:25.366Z,97384.38
2018-09-01T01:22:57.856Z,97387.92
2018-09-01T01:25:27.012Z,97376.94
2018-09-01T01:27:56.137Z,97375.86
2018-09-01T01:30:27.037Z,97360.84
2018-09-01T01:32:56.080Z,97365.63
2018-09-01T01:38:18.157Z,97371.84
2018-09-01T01:40:47.219Z,97377.03
2018-09-01T01:43:16.289Z,97371.63
2018-09-01T01:45:45.443Z,97365.19
2018-09-01T01:48:14.490Z,97351.05
2018-09-01T01:50:43.584Z,97349.72
2018-09-01T01:53:12.619Z,97354.73
2018-09-01T01:55:41.696Z,97345.52
2018-09-01T01:58:10.870Z,97354.64
2018-09-01T02:04:10.337Z,97342.44
2018-09-01T02:06:39.561Z,97348.23
2018-09-01T02:09:09.692Z,97347.17
2018-09-01T02:11:38.769Z,97347.02
2018-09-01T02:14:08.048Z,97347.60
2018-09-01T02:16:37.028Z,97339.17
2018-09-01T02:19:06.316Z,97335.48
2018-09-01T02:21:35.382Z,97334.14
2018-09-01T02:24:05.211Z,97340.51
2018-09-01T02:26:34.289Z,97340.30
2018-09-01T02:29:04.045Z,97340.75
2018-09-01T02:31:33.093Z,97349.84
2018-09-01T02:34:02.783Z,97349.78
2018-09-01T02:36:32.087Z,97350.66
2018-09-01T02:39:02.026Z,97351.15
2018-09-01T02:41:31.172Z,97360.20
2018-09-01T02:44:00.248Z,97358.57
2018-09-01T02:46:29.320Z,97355.52
2018-09-01T02:48:58.336Z,97348.56
2018-09-01T02:51:27.385Z,97348.69
2018-09-01T02:53:56.433Z,97342.86
2018-09-01T02:56:26.371Z,97337.73
2018-09-01T02:58:55.531Z,97340.55
2018-09-01T03:01:29.658Z,97335.77
2018-09-01T03:03:58.946Z,97324.13
2018-09-01T03:06:32.364Z,97323.31
2018-09-01T03:09:10.886Z,97319.77
2018-09-01T03:11:40.302Z,97326.09
2018-09-01T03:14:09.928Z,97323.70
2018-09-01T03:16:39.014Z,97321.13
2018-09-01T03:19:09.845Z,97314.16
2018-09-01T03:21:39.028Z,97322.36
2018-09-01T03:24:08.088Z,97312.30
2018-09-01T03:26:37.321Z,97304.95
2018-09-01T03:29:06.544Z,97301.16
2018-09-01T03:31:35.649Z,97309.91
2018-09-01T03:34:05.583Z,97310.72
2018-09-01T03:36:34.800Z,97306.36
2018-09-01T03:39:05.865Z,97312.08
2018-09-01T03:41:40.220Z,97311.27
2018-09-01T03:44:09.535Z,97320.53
2018-09-01T03:46:38.545Z,97319.72
2018-09-01T03:49:09.216Z,97321.89
2018-09-01T03:51:38.437Z,97324.02
2018-09-01T03:54:07.854Z,97319.91
2018-09-01T03:56:37.100Z,97316.88
2018-09-01T03:59:06.411Z,97303.04
2018-09-01T04:01:35.593Z,97305.00
2018-09-01T04:04:05.269Z,97312.06
2018-09-01T04:06:34.381Z,97303.09
2018-09-01T04:09:04.348Z,97295.22
2018-09-01T04:11:33.499Z,97291.70
2018-09-01T04:14:02.971Z,97297.44
2018-09-01T04:16:32.007Z,97302.89
2018-09-01T04:19:05.125Z,97304.77
2018-09-01T04:21:35.282Z,97299.60
2018-09-01T04:24:04.879Z,97288.43
2018-09-01T04:26:34.048Z,97286.25
2018-09-01T04:29:04.176Z,97286.60
2018-09-01T04:31:33.476Z,97301.02
2018-09-01T04:34:03.229Z,97298.56
2018-09-01T04:36:32.286Z,97303.17
2018-09-01T04:39:01.657Z,97306.77
2018-09-01T04:41:30.826Z,97304.93
2018-09-01T04:43:59.991Z,97305.01
2018-09-01T04:46:29.151Z,97315.09
2018-09-01T04:48:58.337Z,97319.17
2018-09-01T04:51:27.460Z,97318.03
2018-09-01T04:53:56.509Z,97302.23
2018-09-01T04:56:25.710Z,97317.44
2018-09-01T04:58:55.060Z,97320.60
2018-09-01T05:01:24.179Z,97323.64
2018-09-01T05:03:53.292Z,97321.02
2018-09-01T05:06:22.426Z,97320.42
2018-09-01T05:08:51.694Z,97323.51
2018-09-01T05:11:20.830Z,97322.77
2018-09-01T05:13:49.913Z,97335.14
2018-09-01T05:16:19.047Z,97330.33
2018-09-01T05:18:48.555Z,97324.63
2018-09-01T05:21:24.491Z,97333.54
2018-09-01T05:23:53.751Z,97327.86
2018-09-01T05:26:23.411Z,97332.47
2018-09-01T05:28:52.660Z,97338.33
2018-09-01T05:31:22.952Z,97339.56
2018-09-01T05:33:53.310Z,97332.99
2018-09-01T05:36:22.983Z,97323.34
2018-09-01T05:38:52.107Z,97319.35
2018-09-01T05:41:22.414Z,97321.23
2018-09-01T05:43:51.572Z,97323.48
2018-09-01T05:46:25.193Z,97323.94
2018-09-01T05:48:54.542Z,97322.41
2018-09-01T05:51:27.698Z,97323.97
2018-09-01T05:53:56.772Z,97320.84
2018-09-01T05:56:34.702Z,97323.39
2018-09-01T05:59:04.529Z,97323.39
2018-09-01T06:01:33.772Z,97322.86
2018-09-01T06:04:03.378Z,97332.63
2018-09-01T06:06:43.370Z,97323.01
2018-09-01T06:09:17.159Z,97317.25
2018-09-01T06:11:46.475Z,97328.93
2018-09-01T06:14:15.680Z,97321.92
2018-09-01T06:16:44.699Z,97319.53
2018-09-01T06:19:15.068Z,97326.57
2018-09-01T06:21:43.987Z,97323.25
2018-09-01T06:24:13.118Z,97333.23
2018-09-01T06:26:42.236Z,97335.82
2018-09-01T06:29:19.472Z,97327.56
2018-09-01T06:31:54.877Z,97330.64
2018-09-01T06:34:24.442Z,97324.67
2018-09-01T06:36:53.649Z,97327.48
2018-09-01T06:39:23.351Z,97326.05
2018-09-01T06:41:52.412Z,97326.77
2018-09-01T06:44:21.656Z,97328.57
2018-09-01T06:46:51.043Z,97329.66
2018-09-01T06:49:20.291Z,97329.61
2018-09-01T06:51:49.526Z,97332.48
2018-09-01T06:54:18.734Z,97333.53
2018-09-01T06:57:16.052Z,97325.37
2018-09-01T06:59:45.157Z,97322.58
2018-09-01T07:02:14.367Z,97332.17
2018-09-01T07:04:43.615Z,97334.31
2018-09-01T07:07:12.786Z,97332.53
2018-09-01T07:09:41.878Z,97334.84
2018-09-01T07:12:11.081Z,97333.02
2018-09-01T07:14:40.261Z,97334.15
2018-09-01T07:17:09.810Z,97335.52
2018-09-01T07:19:38.960Z,97335.55
2018-09-01T07:22:35.559Z,97340.53
2018-09-01T07:25:05.300Z,97339.55
2018-09-01T07:27:34.519Z,97330.37
2018-09-01T07:30:04.021Z,97323.93
2018-09-01T07:32:33.169Z,97328.66
2018-09-01T07:35:02.911Z,97339.41
2018-09-01T07:37:31.942Z,97329.05
2018-09-01T07:40:00.935Z,97332.94
2018-09-01T07:42:29.989Z,97341.23
2018-09-01T07:44:59.298Z,97336.45
2018-09-01T07:47:28.473Z,97338.10
2018-09-01T07:49:57.728Z,97349.13
2018-09-01T07:52:27.102Z,97342.38
2018-09-01T07:54:56.289Z,97338.61
2018-09-01T07:57:25.408Z,97344.88
2018-09-01T07:59:54.487Z,97343.63
2018-09-01T08:02:23.661Z,97337.20
2018-09-01T08:04:52.738Z,97334.95
2018-09-01T08:07:21.938Z,97330.11
2018-09-01T08:09:51.121Z,97334.03
2018-09-01T08:12:20.235Z,97330.31
2018-09-01T08:14:49.327Z,97348.48
2018-09-01T08:17:18.523Z,97336.03
2018-09-01T08:19:47.648Z,97337.06
2018-09-01T08:22:30.952Z,97340.68
2018-09-01T08:32:32.380Z,97362.22
2018-09-01T08:35:01.796Z,97356.34
2018-09-01T08:37:31.339Z,97363.42
2018-09-01T08:40:00.644Z,97360.95
2018-09-01T08:42:29.839Z,97344.38
2018-09-01T08:44:59.036Z,97354.04
2018-09-01T08:47:28.936Z,97353.05
2018-09-01T08:49:57.963Z,97345.55
2018-09-01T08:52:27.062Z,97356.56
2018-09-01T08:54:56.333Z,97357.60
2018-09-01T08:57:25.547Z,97342.20
2018-09-01T08:59:54.632Z,97350.17
2018-09-01T09:02:24.045Z,97346.10
2018-09-01T09:04:53.085Z,97343.12
2018-09-01T09:07:22.412Z,97341.41
2018-09-01T09:09:51.530Z,97345.32
2018-09-01T09:12:20.682Z,97339.26
2018-09-01T09:14:49.834Z,97323.06
2018-09-01T09:17:28.925Z,97334.36
2018-09-01T09:20:08.020Z,97335.19
2018-09-01T09:22:44.142Z,97356.46
2018-09-01T09:25:33.767Z,97353.31
2018-09-01T09:28:12.345Z,97348.23
2018-09-01T09:30:46.885Z,97339.41
2018-09-01T09:33:23.090Z,97339.08
2018-09-01T09:35:58.068Z,97330.19
2018-09-01T09:38:33.209Z,97313.60
2018-09-01T09:41:07.579Z,97284.83
2018-09-01T09:43:47.280Z,97299.23
2018-09-01T09:46:24.360Z,97341.02
2018-09-01T09:49:00.049Z,97333.80
2018-09-01T09:51:38.327Z,97324.38
2018-09-01T09:54:07.881Z,97318.63
2018-09-01T09:56:36.999Z,97316.05
2018-09-01T09:59:06.399Z,97343.98
2018-09-01T10:01:40.027Z,97341.31
2018-09-01T10:04:09.852Z,97348.17
2018-09-01T10:15:17.955Z,97325.89
2018-09-01T10:17:47.288Z,97313.82
2018-09-01T10:20:16.562Z,97333.83
2018-09-01T10:22:46.005Z,97310.98
2018-09-01T10:25:15.219Z,97328.48
2018-09-01T10:27:44.538Z,97333.03
2018-09-01T10:30:24.632Z,97338.66
2018-09-01T10:33:03.041Z,97312.52
2018-09-01T10:35:47.181Z,97317.13
2018-09-01T10:38:43.719Z,97328.91
2018-09-01T10:41:23.094Z,97341.08
2018-09-01T10:44:03.923Z,97334.94
2018-09-01T10:46:41.203Z,97321.08
2018-09-01T10:49:19.306Z,97296.17
2018-09-01T10:51:59.832Z,97319.48
2018-09-01T10:54:38.696Z,97309.13
2018-09-01T10:57:13.169Z,97317.24
2018-09-01T10:59:47.437Z,97303.06
2018-09-01T11:02:27.780Z,97297.47
2018-09-01T11:05:06.712Z,97293.31
2018-09-01T11:07:52.534Z,97277.68
2018-09-01T11:10:42.438Z,97294.92
2018-09-01T11:13:26.253Z,97290.31
2018-09-01T11:16:05.064Z,97287.30
2018-09-01T11:18:43.317Z,97282.75
2018-09-01T11:21:24.256Z,97278.75
2018-09-01T11:24:04.489Z,97293.39
2018-09-01T11:26:45.503Z,97286.45
2018-09-01T11:29:27.757Z,97291.73
2018-09-01T11:32:01.346Z,97279.27
2018-09-01T11:34:35.159Z,97301.13
2018-09-01T11:37:16.610Z,97274.50
2018-09-01T11:39:51.673Z,97295.05
2018-09-01T11:42:31.314Z,97303.36
2018-09-01T11:45:05.225Z,97302.95
2018-09-01T11:47:41.551Z,97313.34
2018-09-01T11:50:23.372Z,97302.14
2018-09-01T11:53:03.590Z,97296.38
2018-09-01T11:55:40.055Z,97319.48
2018-09-01T11:58:18.950Z,97306.19
2018-09-01T12:01:00.730Z,97304.90
2018-09-01T12:03:52.122Z,97306.92
2018-09-01T12:06:30.802Z,97312.22
2018-09-01T12:09:22.252Z,97305.55
2018-09-01T12:12:00.858Z,97298.36
2018-09-01T12:14:38.456Z,97310.48
2018-09-01T12:17:16.245Z,97305.59
2018-09-01T12:19:56.877Z,97302.84
2018-09-01T12:22:35.825Z,97316.09
2018-09-01T12:25:16.490Z,97286.31
2018-09-01T12:27:54.606Z,97285.08
2018-09-01T12:30:31.596Z,97307.09
2018-09-01T12:33:12.874Z,97291.52
2018-09-01T12:35:50.226Z,97282.88
2018-09-01T12:38:26.103Z,97285.84
2018-09-01T12:41:14.682Z,97277.45
2018-09-01T12:43:51.663Z,97265.80
2018-09-01T12:46:35.124Z,97221.98
2018-09-01T12:49:18.294Z,97286.53
2018-09-01T12:51:59.700Z,97287.17
2018-09-01T12:54:36.718Z,97292.67
2018-09-01T12:57:16.120Z,97308.38
2018-09-01T12:59:50.248Z,97266.05
2018-09-01T13:02:28.025Z,97308.69
2018-09-01T13:05:04.300Z,97286.19
2018-09-01T13:07:40.282Z,97299.45
2018-09-01T13:10:21.285Z,97302.06
2018-09-01T13:13:15.231Z,97303.73
2018-09-01T13:15:52.609Z,97314.73
2018-09-01T13:18:28.201Z,97327.44
2018-09-01T13:21:07.290Z,97325.37
2018-09-01T13:23:42.322Z,97298.34
2018-09-01T13:26:17.195Z,97310.94
2018-09-01T13:28:52.540Z,97322.52
2018-09-01T13:31:29.283Z,97320.89
2018-09-01T13:34:06.749Z,97327.57
2018-09-01T13:36:42.044Z,97339.90
2018-09-01T13:39:12.740Z,97307.08
2018-09-01T13:41:46.936Z,97331.48
2018-09-01T13:44:32.965Z,97336.25
2018-09-01T13:47:06.288Z,97332.29
2018-09-01T13:49:39.453Z,97310.45
2018-09-01T13:52:13.008Z,97316.56
2018-09-01T13:54:51.804Z,97318.73
2018-09-01T13:57:26.874Z,97310.19
2018-09-01T14:00:04.224Z,97319.06
2018-09-01T14:02:41.588Z,97308.85
2018-09-01T14:05:15.186Z,97313.00
2018-09-01T14:07:48.823Z,97311.56
2018-09-01T14:10:20.964Z,97328.31
2018-09-01T14:12:53.885Z,97320.41
2018-09-01T14:15:26.856Z,97328.30
2018-09-01T14:18:03.395Z,97315.46
2018-09-01T14:20:39.853Z,97324.21
2018-09-01T14:23:11.031Z,97318.99
2018-09-01T14:25:55.547Z,97306.10
2018-09-01T14:28:31.548Z,97311.23
2018-09-01T14:31:07.250Z,97303.92
2018-09-01T14:33:42.945Z,97295.08
2018-09-01T14:36:34.859Z,97313.66
2018-09-01T14:39:15.033Z,97295.22
2018-09-01T14:41:51.461Z,97300.56
2018-09-01T14:44:28.263Z,97287.13
2018-09-01T14:47:05.608Z,97299.19
2018-09-01T14:49:41.901Z,97292.34
2018-09-01T14:52:15.827Z,97298.53
2018-09-01T14:54:52.263Z,97293.48
2018-09-01T14:57:27.366Z,97292.26
2018-09-01T15:02:58.523Z,97273.13
2018-09-01T15:05:36.244Z,97287.11
2018-09-01T15:08:12.608Z,97291.43
2018-09-01T15:10:49.655Z,97295.70
2018-09-01T15:13:26.109Z,97293.59
2018-09-01T15:16:05.404Z,97305.88
2018-09-01T15:18:41.289Z,97302.20
2018-09-01T15:21:18.354Z,97297.23
2018-09-01T15:23:54.944Z,97295.30
2018-09-01T15:26:31.899Z,97307.12
2018-09-01T15:29:08.024Z,97301.63
2018-09-01T15:31:37.112Z,97317.13
2018-09-01T15:34:06.447Z,97318.56
2018-09-01T15:36:35.347Z,97306.34
2018-09-01T15:39:13.168Z,97315.66
2018-09-01T15:41:49.548Z,97307.16
2018-09-01T15:44:26.183Z,97324.45
2018-09-01T15:47:02.087Z,97309.04
2018-09-01T15:49:38.303Z,97334.70
2018-09-01T15:52:14.686Z,97337.68
2018-09-01T15:54:50.672Z,97357.55
2018-09-01T15:57:36.669Z,97355.35
2018-09-01T16:00:14.358Z,97364.02
2018-09-01T16:02:49.104Z,97355.84
2018-09-01T16:05:25.109Z,97362.55
2018-09-01T16:07:59.700Z,97356.23
2018-09-01T16:10:32.072Z,97366.00
2018-09-01T16:13:05.455Z,97378.45
2018-09-01T16:15:39.216Z,97371.42
2018-09-01T16:18:16.599Z,97364.63
2018-09-01T16:20:51.515Z,97377.59
2018-09-01T16:23:26.561Z,97374.84
2018-09-01T16:26:18.974Z,97365.30
2018-09-01T16:28:51.767Z,97368.84
2018-09-01T16:31:23.990Z,97374.55
2018-09-01T16:33:57.919Z,97382.46
2018-09-01T16:36:31.878Z,97378.48
2018-09-01T16:39:04.725Z,97372.28
2018-09-01T16:42:43.176Z,97380.42
2018-09-01T16:45:23.988Z,97383.87
2018-09-01T16:48:00.763Z,97389.14
2018-09-01T16:50:36.092Z,97404.92
2018-09-01T16:53:12.759Z,97398.21
2018-09-01T17:10:21.645Z,97391.03
2018-09-01T17:12:51.271Z,97384.95
2018-09-01T17:49:09.185Z,97377.30
2018-09-01T17:51:38.740Z,97378.17
2018-09-01T18:00:40.358Z,97401.60
2018-09-01T18:06:12.856Z,97397.62
2018-09-01T18:20:32.558Z,97395.90
2018-09-01T18:29:40.554Z,97416.56
2018-09-01T18:32:15.017Z,97422.39
2018-09-01T18:52:46.655Z,97416.70
2018-09-01T18:55:19.943Z,97437.64
2018-09-01T18:57:53.217Z,97425.55
2018-09-01T19:00:29.019Z,97433.60
2018-09-01T19:03:03.070Z,97438.66
2018-09-01T19:05:35.004Z,97434.19
2018-09-01T19:08:04.093Z,97438.34
2018-09-01T19:10:33.008Z,97434.48
2018-09-01T19:13:06.187Z,97443.31
2018-09-01T19:15:35.989Z,97418.30
2018-09-01T19:18:05.176Z,97445.17
2018-09-01T19:20:42.345Z,97445.05
2018-09-01T19:23:11.825Z,97441.78
2018-09-01T19:25:40.718Z,97447.05
2018-09-01T19:28:10.736Z,97456.18
2018-09-01T19:30:40.092Z,97447.84
2018-09-01T19:33:09.059Z,97458.80
2018-09-01T19:35:38.026Z,97465.11
2018-09-01T19:38:07.345Z,97461.75
2018-09-01T19:43:54.766Z,97468.30
2018-09-01T19:49:14.085Z,97460.70
2018-09-01T19:51:43.080Z,97459.70
2018-09-01T20:00:24.840Z,97457.94
2018-09-01T20:06:14.333Z,97468.25
2018-09-01T20:08:43.323Z,97464.78
2018-09-01T20:20:55.290Z,97458.83
2018-09-01T20:23:24.212Z,97455.13
2018-09-01T20:25:54.741Z,97455.75
2018-09-01T20:28:25.715Z,97456.44
2018-09-01T20:30:56.180Z,97451.00
2018-09-01T20:36:19.672Z,97454.11
2018-09-01T20:38:48.668Z,97445.79
2018-09-01T20:41:19.754Z,97450.33
2018-09-01T20:43:50.311Z,97452.42
2018-09-01T20:46:19.363Z,97447.00
2018-09-01T20:48:48.354Z,97456.22
2018-09-01T20:51:17.328Z,97455.78
2018-09-01T20:53:46.447Z,97452.63
2018-09-01T20:56:15.786Z,97454.49
2018-09-01T21:01:35.907Z,97454.17
2018-09-01T21:04:08.624Z,97440.87
2018-09-01T21:07:02.097Z,97447.53
2018-09-01T21:15:39.004Z,97439.19
2018-09-01T21:18:07.950Z,97429.86
2018-09-01T21:20:37.181Z,97438.56
2018-09-01T21:31:51.466Z,97443.67
2018-09-01T21:34:20.461Z,97439.90
2018-09-01T21:40:06.407Z,97440.43
2018-09-01T21:42:40.893Z,97451.91
2018-09-01T21:45:10.067Z,97448.79
2018-09-01T21:54:07.399Z,97454.37
2018-09-01T22:02:38.915Z,97457.41
2018-09-01T22:05:13.152Z,97459.10
2018-09-01T22:07:48.646Z,97457.80
2018-09-01T22:10:38.066Z,97452.12
2018-09-01T22:13:07.206Z,97450.19
2018-09-01T22:15:36.912Z,97444.74
2018-09-01T22:18:05.811Z,97453.75
2018-09-01T22:20:34.743Z,97449.64
2018-09-01T22:23:03.791Z,97450.70
2018-09-01T22:25:32.731Z,97445.50
2018-09-01T22:28:01.789Z,97440.30
2018-09-01T22:30:31.121Z,97441.17
2018-09-01T22:33:00.107Z,97439.53
2018-09-01T22:35:29.172Z,97437.56
2018-09-01T22:37:58.211Z,97439.52
2018-09-01T22:40:27.161Z,97446.75
2018-09-01T22:42:56.377Z,97447.87
2018-09-01T22:45:25.612Z,97451.00
2018-09-01T22:47:54.611Z,97452.19
2018-09-01T22:50:23.606Z,97459.25
2018-09-01T22:52:53.597Z,97457.39
2018-09-01T22:55:22.712Z,97454.91
2018-09-01T22:57:51.765Z,97456.41
2018-09-01T23:00:20.923Z,97452.00
2018-09-01T23:02:49.840Z,97455.58
2018-09-01T23:05:19.602Z,97453.28
2018-09-01T23:10:41.767Z,97433.08
2018-09-01T23:13:10.759Z,97436.33
2018-09-01T23:15:40.380Z,97444.14
2018-09-01T23:18:10.344Z,97438.59
2018-09-01T23:20:40.133Z,97439.00
2018-09-01T23:23:09.080Z,97443.67
2018-09-01T23:25:40.367Z,97439.30
2018-09-01T23:28:10.449Z,97434.62
2018-09-01T23:30:39.491Z,97437.86
2018-09-01T23:33:08.579Z,97433.55
2018-09-01T23:35:38.324Z,97432.91
2018-09-01T23:38:07.414Z,97435.88
2018-09-01T23:40:36.416Z,97437.86
2018-09-01T23:43:06.903Z,97436.55
2018-09-01T23:45:36.670Z,97435.44
2018-09-01T23:48:05.577Z,97442.24
2018-09-01T23:50:34.926Z,97445.25
2018-09-01T23:53:03.907Z,97448.52
2018-09-01T23:55:32.917Z,97449.34
2018-09-01T23:58:01.838Z,97449.58
